createdAt,value
2023-04-09T00:02:36.019Z,9.31
2023-04-09T00:07:37.773Z,9.32
2023-04-09T00:12:39.448Z,9.27
2023-04-09T00:17:41.323Z,9.28
2023-04-09T00:22:43.229Z,9.38
2023-04-09T00:27:44.878Z,9.25
2023-04-09T00:32:46.726Z,9.39
2023-04-09T00:37:48.534Z,9.45
2023-04-09T00:42:51.761Z,9.36
2023-04-09T00:47:53.690Z,9.36
2023-04-09T00:52:56.455Z,9.41
2023-04-09T00:57:58.388Z,9.33
2023-04-09T01:03:01.108Z,9.45
2023-04-09T01:08:17.956Z,9.49
2023-04-09T01:13:31.697Z,9.39
2023-04-09T01:18:50.868Z,9.30
2023-04-09T01:24:19.280Z,9.14
2023-04-09T01:29:24.045Z,9.23
2023-04-09T01:34:27.475Z,9.21
2023-04-09T01:39:30.054Z,9.16
2023-04-09T01:44:32.754Z,9.15
2023-04-09T01:49:36.276Z,9.18
2023-04-09T01:54:37.960Z,9.20
2023-04-09T01:59:39.608Z,9.00
2023-04-09T02:04:46.577Z,9.02
2023-04-09T02:09:48.882Z,9.13
2023-04-09T02:14:52.402Z,9.05
2023-04-09T02:19:54.068Z,9.25
2023-04-09T02:24:55.956Z,9.23
2023-04-09T02:29:57.629Z,9.14
2023-04-09T02:34:59.345Z,9.08
2023-04-09T02:40:01.044Z,9.05
2023-04-09T02:45:02.670Z,9.03
2023-04-09T02:50:06.756Z,9.04
2023-04-09T02:55:10.298Z,8.98
2023-04-09T03:00:12.809Z,8.99
2023-04-09T03:05:14.713Z,8.87
2023-04-09T03:10:16.375Z,8.94
2023-04-09T03:15:18.322Z,8.98
2023-04-09T03:20:20.137Z,9.06
2023-04-09T03:25:21.968Z,9.01
2023-04-09T03:30:27.485Z,9.02
2023-04-09T03:35:30.676Z,9.09
2023-04-09T03:40:36.505Z,9.16
2023-04-09T03:45:38.303Z,9.24
2023-04-09T03:50:53.780Z,9.21
2023-04-09T03:56:04.120Z,9.05
2023-04-09T04:01:06.984Z,9.12
2023-04-09T04:06:16.559Z,9.19
2023-04-09T04:11:26.644Z,9.16
2023-04-09T04:16:30.326Z,9.17
2023-04-09T04:21:32.391Z,9.10
2023-04-09T04:26:36.824Z,9.00
2023-04-09T04:31:38.682Z,8.95
2023-04-09T04:36:40.440Z,9.03
2023-04-09T04:41:42.989Z,8.95
2023-04-09T04:46:49.762Z,8.91
2023-04-09T04:51:51.481Z,8.79
2023-04-09T04:56:53.613Z,8.84
2023-04-09T05:02:11.836Z,8.80
2023-04-09T05:07:24.404Z,8.88
2023-04-09T05:12:32.016Z,8.96
2023-04-09T05:17:34.493Z,9.00
2023-04-09T05:22:36.451Z,9.13
2023-04-09T05:27:39.182Z,9.00
2023-04-09T05:32:41.516Z,8.98
2023-04-09T05:37:43.556Z,9.14
2023-04-09T05:42:46.668Z,9.06
2023-04-09T05:47:56.765Z,9.10
2023-04-09T05:52:58.645Z,9.11
2023-04-09T05:58:07.497Z,9.10
2023-04-09T06:03:09.789Z,9.19
2023-04-09T06:08:12.170Z,9.31
2023-04-09T06:13:14.015Z,9.34
2023-04-09T06:18:16.536Z,9.37
2023-04-09T06:23:18.428Z,9.33
2023-04-09T06:28:20.369Z,9.30
2023-04-09T06:33:22.438Z,9.35
2023-04-09T06:38:24.232Z,9.35
2023-04-09T06:43:26.097Z,9.37
2023-04-09T06:48:28.324Z,9.20
2023-04-09T06:53:29.975Z,9.29
2023-04-09T06:58:31.666Z,9.34
2023-04-09T07:03:33.560Z,9.20
2023-04-09T07:08:35.441Z,9.19
2023-04-09T07:13:37.316Z,9.11
2023-04-09T07:18:40.299Z,9.12
2023-04-09T07:23:42.556Z,9.15
2023-04-09T07:28:44.329Z,9.19
2023-04-09T07:33:46.214Z,9.15
2023-04-09T07:38:50.465Z,9.14
2023-04-09T07:43:52.277Z,9.19
2023-04-09T07:48:54.491Z,9.18
2023-04-09T07:53:56.424Z,9.20
2023-04-09T07:58:58.417Z,9.26
2023-04-09T08:04:00.657Z,9.17
2023-04-09T08:09:03.284Z,9.14
2023-04-09T08:14:06.324Z,9.18
2023-04-09T08:19:09.480Z,9.13
2023-04-09T08:24:12.055Z,9.23
2023-04-09T08:29:15.527Z,9.27
2023-04-09T08:34:21.039Z,9.27
2023-04-09T08:39:22.781Z,9.22
2023-04-09T08:44:27.889Z,9.17
2023-04-09T08:49:29.745Z,9.30
2023-04-09T08:54:32.281Z,9.25
2023-04-09T08:59:38.000Z,9.34
2023-04-09T09:04:50.911Z,9.34
2023-04-09T09:09:53.568Z,9.21
2023-04-09T09:14:55.405Z,9.30
2023-04-09T09:19:57.757Z,9.33
2023-04-09T09:24:59.510Z,9.26
2023-04-09T09:30:01.543Z,9.21
2023-04-09T09:35:08.469Z,9.21
2023-04-09T09:40:10.795Z,9.17
2023-04-09T09:45:19.606Z,9.09
2023-04-09T09:50:28.546Z,9.27
2023-04-09T09:55:43.462Z,9.32
2023-04-09T10:00:47.272Z,9.18
2023-04-09T10:05:50.040Z,9.18
2023-04-09T10:10:52.806Z,9.24
2023-04-09T10:16:56.962Z,9.22
2023-04-09T10:22:05.805Z,9.36
2023-04-09T10:27:14.280Z,9.19
2023-04-09T10:32:26.589Z,9.46
2023-04-09T10:37:28.871Z,9.64
2023-04-09T10:42:35.431Z,9.72
2023-04-09T10:47:39.653Z,9.74
2023-04-09T10:52:42.398Z,9.89
2023-04-09T10:57:44.210Z,9.89
2023-04-09T11:03:06.654Z,9.89
2023-04-09T11:08:10.707Z,10.12
2023-04-09T11:13:13.956Z,10.24
2023-04-09T11:18:20.883Z,10.31
2023-04-09T11:23:23.776Z,10.43
2023-04-09T11:28:26.438Z,10.55
2023-04-09T11:33:34.649Z,10.78
2023-04-09T11:38:37.210Z,11.30
2023-04-09T11:43:38.940Z,11.38
2023-04-09T11:48:40.699Z,11.70
2023-04-09T11:53:42.327Z,12.00
2023-04-09T11:58:48.267Z,12.30
2023-04-09T12:03:56.373Z,12.50
2023-04-09T12:08:59.410Z,12.45
2023-04-09T12:14:05.340Z,12.35
2023-04-09T12:19:08.714Z,12.60
2023-04-09T12:24:10.456Z,12.67
2023-04-09T12:29:14.036Z,12.59
2023-04-09T12:34:16.395Z,12.63
2023-04-09T12:39:18.252Z,12.60
2023-04-09T12:44:20.013Z,12.79
2023-04-09T12:49:21.692Z,12.68
2023-04-09T12:54:23.455Z,12.85
2023-04-09T12:59:25.263Z,12.79
2023-04-09T13:04:27.059Z,12.74
2023-04-09T13:09:28.815Z,12.70
2023-04-09T13:14:30.797Z,12.78
2023-04-09T13:19:32.728Z,12.76
2023-04-09T13:24:38.244Z,12.68
2023-04-09T13:29:40.101Z,12.76
2023-04-09T13:34:41.762Z,12.65
2023-04-09T13:39:44.870Z,12.66
2023-04-09T13:44:46.799Z,12.76
2023-04-09T13:49:48.555Z,12.63
2023-04-09T13:54:50.326Z,12.70
2023-04-09T13:59:51.994Z,12.73
2023-04-09T14:04:53.743Z,12.81
2023-04-09T14:09:55.440Z,12.66
2023-04-09T14:14:57.175Z,12.68
2023-04-09T14:19:59.163Z,12.62
2023-04-09T14:25:00.781Z,12.57
2023-04-09T14:30:03.594Z,12.73
2023-04-09T14:35:06.364Z,12.90
2023-04-09T14:40:08.737Z,13.11
2023-04-09T14:45:11.067Z,13.21
2023-04-09T14:50:12.979Z,13.25
2023-04-09T14:55:15.643Z,13.28
2023-04-09T15:00:17.328Z,13.20
2023-04-09T15:05:19.215Z,13.16
2023-04-09T15:10:21.005Z,13.34
2023-04-09T15:15:22.890Z,13.47
2023-04-09T15:20:24.622Z,13.28
2023-04-09T15:25:26.255Z,13.36
2023-04-09T15:30:27.929Z,13.55
2023-04-09T15:35:29.711Z,13.68
2023-04-09T15:40:32.000Z,13.71
2023-04-09T15:45:33.737Z,13.82
2023-04-09T15:50:35.617Z,13.74
2023-04-09T15:55:37.340Z,13.76
2023-04-09T16:00:39.004Z,13.83
2023-04-09T16:05:40.695Z,13.89
2023-04-09T16:10:42.393Z,13.85
2023-04-09T16:15:45.423Z,13.69
2023-04-09T16:20:47.304Z,13.84
2023-04-09T16:25:49.498Z,13.78
2023-04-09T16:30:51.138Z,13.72
2023-04-09T16:35:52.859Z,13.70
2023-04-09T16:40:54.972Z,13.70
2023-04-09T16:45:57.151Z,13.66
2023-04-09T16:50:58.892Z,13.67
2023-04-09T16:56:00.760Z,13.69
2023-04-09T17:01:02.436Z,13.69
2023-04-09T17:06:04.930Z,13.60
2023-04-09T17:11:06.946Z,13.58
2023-04-09T17:16:09.372Z,13.54
2023-04-09T17:21:12.410Z,13.50
2023-04-09T17:26:16.866Z,13.48
2023-04-09T17:31:19.213Z,13.38
2023-04-09T17:36:21.350Z,13.39
2023-04-09T17:41:24.066Z,13.32
2023-04-09T17:46:25.855Z,13.25
2023-04-09T17:51:27.758Z,13.11
2023-04-09T17:56:29.374Z,13.09
2023-04-09T18:01:31.053Z,12.96
2023-04-09T18:06:32.924Z,12.95
2023-04-09T18:11:34.644Z,12.82
2023-04-09T18:16:40.138Z,12.80
2023-04-09T18:21:42.046Z,12.76
2023-04-09T18:26:44.012Z,12.72
2023-04-09T18:31:45.778Z,12.67
2023-04-09T18:36:48.700Z,12.57
2023-04-09T18:41:50.675Z,12.57
2023-04-09T18:46:52.604Z,12.51
2023-04-09T18:51:54.785Z,12.42
2023-04-09T18:56:57.593Z,12.42
2023-04-09T19:01:59.589Z,12.43
2023-04-09T19:07:01.773Z,12.37
2023-04-09T19:12:03.768Z,12.27
2023-04-09T19:17:05.677Z,12.27
2023-04-09T19:22:07.517Z,12.18
2023-04-09T19:27:10.069Z,12.05
2023-04-09T19:32:13.365Z,11.97
2023-04-09T19:37:16.486Z,11.93
2023-04-09T19:42:18.227Z,11.95
2023-04-09T19:47:19.975Z,11.88
2023-04-09T19:52:21.787Z,11.98
2023-04-09T19:57:23.530Z,11.92
2023-04-09T20:02:25.642Z,11.83
2023-04-09T20:07:27.352Z,11.78
2023-04-09T20:12:29.694Z,11.74
2023-04-09T20:17:32.040Z,11.63
2023-04-09T20:22:34.083Z,11.54
2023-04-09T20:27:35.687Z,11.61
2023-04-09T20:32:41.213Z,11.55
2023-04-09T20:37:51.801Z,11.54
2023-04-09T20:42:53.560Z,11.65
2023-04-09T20:47:56.235Z,11.62
2023-04-09T20:53:01.159Z,11.61
2023-04-09T20:58:04.265Z,11.54
2023-04-09T21:03:06.052Z,11.46
2023-04-09T21:08:08.271Z,11.41
2023-04-09T21:13:09.885Z,11.29
2023-04-09T21:18:11.591Z,11.35
2023-04-09T21:23:13.674Z,11.34
2023-04-09T21:28:15.582Z,11.25
2023-04-09T21:33:17.204Z,11.18
2023-04-09T21:38:19.255Z,11.21
2023-04-09T21:43:20.923Z,11.11
2023-04-09T21:48:23.085Z,11.08
2023-04-09T21:53:24.852Z,11.18
2023-04-09T21:58:26.562Z,11.21
2023-04-09T22:03:28.694Z,11.13
2023-04-09T22:08:30.504Z,11.00
2023-04-09T22:13:32.125Z,10.97
2023-04-09T22:18:37.099Z,10.81
2023-04-09T22:23:38.709Z,10.82
2023-04-09T22:28:40.348Z,10.77
2023-04-09T22:33:42.032Z,10.78
2023-04-09T22:38:43.697Z,10.80
2023-04-09T22:43:45.694Z,10.70
2023-04-09T22:48:47.553Z,10.71
2023-04-09T22:53:49.145Z,10.74
2023-04-09T22:58:51.035Z,10.65
2023-04-09T23:03:52.928Z,10.60
2023-04-09T23:08:54.853Z,10.55
2023-04-09T23:13:56.727Z,10.64
2023-04-09T23:18:58.364Z,10.69
2023-04-09T23:24:00.038Z,10.55
2023-04-09T23:29:01.807Z,10.55
2023-04-09T23:34:03.460Z,10.47
2023-04-09T23:39:05.461Z,10.55
2023-04-09T23:44:07.049Z,10.49
2023-04-09T23:49:08.649Z,10.45
2023-04-09T23:54:10.630Z,10.44
2023-04-09T23:59:12.418Z,10.38
